Time;durP1;ratioP1;P1;durP2;ratioP2;P2;SDS_P1;SDS_P2;PMS_P1;PMS_P2;Temp;Humidity;BMP_temperature;BMP_pressure;BME280_temperature;BME280_humidity;BME280_pressure;Samples;Min_cycle;Max_cycle;Signal;HPM_P1;HPM_P2
2023/03/09 00:03:15;;;;;;;4.70;2.83;;;6.20;99.90;;;;;;20908059;28;20087;-47
2023/03/09 00:13:17;;;;;;;6.35;2.80;;;6.20;99.90;;;;;;20906725;28;20044;-44
2023/03/09 00:23:19;;;;;;;5.15;2.97;;;6.10;99.90;;;;;;20905890;28;20107;-51
2023/03/09 00:33:20;;;;;;;3.65;2.67;;;5.90;99.90;;;;;;20905877;28;20133;-48
2023/03/09 00:43:22;;;;;;;3.15;2.33;;;5.80;99.90;;;;;;20904654;28;20082;-47
2023/03/09 00:53:23;;;;;;;5.28;2.42;;;5.70;99.90;;;;;;20903649;28;20410;-53
2023/03/09 01:03:25;;;;;;;5.72;3.63;;;5.80;99.90;;;;;;20902642;28;20552;-53
2023/03/09 01:13:27;;;;;;;12.98;5.75;;;5.80;99.90;;;;;;20902907;28;20074;-53
2023/03/09 01:23:28;;;;;;;14.23;6.68;;;5.80;99.90;;;;;;20903434;28;20056;-46
2023/03/09 01:33:30;;;;;;;18.40;9.55;;;5.80;99.90;;;;;;20901374;28;20048;-52
2023/03/09 01:43:36;;;;;;;13.32;7.13;;;5.80;99.90;;;;;;20901761;28;20059;-48
2023/03/09 01:53:38;;;;;;;12.15;7.82;;;5.80;99.90;;;;;;20901465;28;20029;-49
2023/03/09 02:03:45;;;;;;;15.48;9.27;;;5.70;99.90;;;;;;20901446;28;20036;-49
2023/03/09 02:13:51;;;;;;;15.60;8.52;;;5.70;99.90;;;;;;20914673;28;20486;-50
2023/03/09 02:23:52;;;;;;;14.75;7.78;;;5.70;99.90;;;;;;20914255;28;20430;-53
2023/03/09 02:33:55;;;;;;;16.02;8.38;;;5.60;99.90;;;;;;20913930;28;20037;-50
2023/03/09 02:43:58;;;;;;;18.15;9.27;;;5.60;99.90;;;;;;20912661;28;20540;-48
2023/03/09 02:54:04;;;;;;;10.60;5.57;;;5.60;99.90;;;;;;20912050;28;20044;-51
2023/03/09 03:04:06;;;;;;;15.77;8.35;;;5.50;99.90;;;;;;20912704;28;20025;-53
2023/03/09 03:14:10;;;;;;;13.15;6.72;;;5.50;99.90;;;;;;20910087;28;20514;-52
2023/03/09 03:24:11;;;;;;;19.88;9.77;;;5.40;99.90;;;;;;20909025;28;20033;-49
2023/03/09 03:34:13;;;;;;;24.20;13.65;;;5.40;99.90;;;;;;20910340;28;20032;-52
2023/03/09 03:44:19;;;;;;;17.55;9.20;;;5.30;99.90;;;;;;20907931;28;20048;-50
2023/03/09 03:54:21;;;;;;;11.45;4.90;;;5.30;99.90;;;;;;20908358;28;20372;-53
2023/03/09 04:04:22;;;;;;;8.82;4.93;;;5.20;99.90;;;;;;20906772;28;20087;-51
2023/03/09 04:14:32;;;;;;;8.88;5.03;;;5.20;99.90;;;;;;20905425;28;20041;-47
2023/03/09 04:24:35;;;;;;;12.45;6.57;;;5.30;99.90;;;;;;20904765;28;20037;-51
2023/03/09 04:34:38;;;;;;;18.13;9.02;;;5.20;99.90;;;;;;20904927;28;20067;-53
2023/03/09 04:44:40;;;;;;;15.60;9.38;;;5.20;99.90;;;;;;20903391;28;20040;-53
2023/03/09 04:54:43;;;;;;;7.22;4.70;;;5.20;99.90;;;;;;20902701;28;20029;-49
2023/03/09 05:04:45;;;;;;;6.68;4.15;;;5.30;99.90;;;;;;20903616;28;20055;-50
2023/03/09 05:14:47;;;;;;;10.38;6.10;;;5.30;99.90;;;;;;20902803;28;20101;-51
2023/03/09 05:24:52;;;;;;;7.18;4.38;;;5.50;99.90;;;;;;20902111;28;20486;-52
2023/03/09 05:34:54;;;;;;;9.15;5.38;;;5.50;99.90;;;;;;20901167;28;20387;-48
2023/03/09 05:44:55;;;;;;;7.05;3.80;;;5.50;99.90;;;;;;20910749;28;20029;-51
2023/03/09 05:54:58;;;;;;;3.65;2.53;;;5.60;99.90;;;;;;20919006;28;20033;-50
2023/03/09 06:05:00;;;;;;;5.20;2.28;;;5.60;99.90;;;;;;20917553;28;20095;-47
2023/03/09 06:15:02;;;;;;;2.83;1.38;;;5.70;99.90;;;;;;20916173;28;20045;-48
2023/03/09 06:25:06;;;;;;;2.80;1.40;;;6.30;99.90;;;;;;20915453;28;20032;-46
2023/03/09 06:35:08;;;;;;;4.35;1.60;;;6.80;99.90;;;;;;20913947;28;20091;-45
2023/03/09 06:45:10;;;;;;;1.98;1.15;;;7.00;99.90;;;;;;20913960;28;20037;-51
2023/03/09 06:55:12;;;;;;;4.30;1.40;;;7.20;99.90;;;;;;20909796;28;20489;-50
2023/03/09 07:05:16;;;;;;;2.47;1.63;;;7.30;99.90;;;;;;20911518;28;20045;-50
2023/03/09 07:15:17;;;;;;;2.50;1.45;;;7.20;99.90;;;;;;20911647;28;20095;-49
2023/03/09 07:25:19;;;;;;;2.80;1.27;;;7.30;99.90;;;;;;20910975;28;20479;-51
2023/03/09 07:35:21;;;;;;;3.35;1.75;;;7.70;99.90;;;;;;20910458;28;20087;-53
2023/03/09 07:45:22;;;;;;;3.42;1.85;;;8.00;99.90;;;;;;20908280;28;20036;-50
2023/03/09 07:55:24;;;;;;;1.73;1.00;;;8.60;99.90;;;;;;20908706;28;20029;-54
2023/03/09 08:05:27;;;;;;;1.80;1.10;;;9.00;99.90;;;;;;20908085;28;20067;-56
2023/03/09 08:15:29;;;;;;;2.50;1.60;;;9.50;99.90;;;;;;20907018;28;20447;-51
2023/03/09 08:25:31;;;;;;;4.03;1.85;;;10.30;99.90;;;;;;20906134;28;20490;-51
2023/03/09 08:35:33;;;;;;;3.00;1.88;;;10.50;99.90;;;;;;20905717;28;20025;-54
2023/03/09 08:45:34;;;;;;;3.72;2.28;;;10.40;99.90;;;;;;20904775;28;20082;-57
2023/03/09 08:55:36;;;;;;;2.88;1.77;;;10.90;99.90;;;;;;20904314;28;20029;-52
2023/03/09 09:05:38;;;;;;;10.13;4.57;;;11.40;99.90;;;;;;20903605;28;20063;-56
2023/03/09 09:15:41;;;;;;;3.10;2.03;;;12.00;99.90;;;;;;20902171;28;20037;-56
2023/03/09 09:25:43;;;;;;;7.90;5.50;;;11.30;99.90;;;;;;20902274;28;20021;-52
2023/03/09 09:35:58;;;;;;;9.68;6.00;;;11.50;99.90;;;;;;20902000;28;20363;-54
2023/03/09 09:46:01;;;;;;;12.13;8.07;;;11.20;99.90;;;;;;20902302;28;20122;-56
2023/03/09 09:56:09;;;;;;;12.93;8.38;;;11.60;99.90;;;;;;20901388;28;20037;-54
2023/03/09 10:06:22;;;;;;;12.30;8.25;;;11.50;99.90;;;;;;20900840;28;20187;-55
2023/03/09 10:16:27;;;;;;;13.82;8.73;;;11.90;99.90;;;;;;20900913;28;20052;-53
2023/03/09 10:26:33;;;;;;;12.90;7.95;;;12.80;99.90;;;;;;20901554;28;20124;-51
2023/03/09 10:36:44;;;;;;;14.75;8.10;;;12.70;99.90;;;;;;20914885;28;20463;-53
2023/03/09 10:47:01;;;;;;;14.68;8.00;;;13.40;99.90;;;;;;20914467;28;20045;-52
2023/03/09 10:57:24;;;;;;;13.18;8.30;;;12.90;99.90;;;;;;20913260;28;20059;-52
2023/03/09 11:07:28;;;;;;;13.88;8.13;;;12.70;99.90;;;;;;20911692;28;20052;-51
2023/03/09 11:17:41;;;;;;;10.23;6.05;;;13.70;99.90;;;;;;20911930;28;20389;-50
2023/03/09 11:27:49;;;;;;;10.05;4.90;;;14.30;99.90;;;;;;20910835;28;20106;-49
2023/03/09 11:38:04;;;;;;;5.90;3.65;;;14.60;99.90;;;;;;20909869;28;20037;-50
2023/03/09 11:48:40;;;;;;;4.47;1.77;;;15.00;99.90;;;;;;20909903;28;20067;-52
2023/03/09 11:58:45;;;;;;;7.63;3.60;;;14.80;98.10;;;;;;20906766;28;20453;-51
2023/03/09 12:08:48;;;;;;;8.63;6.10;;;14.60;99.90;;;;;;20907540;28;20449;-49
2023/03/09 12:19:06;;;;;;;10.43;6.60;;;13.70;99.90;;;;;;20907031;28;20051;-50
2023/03/09 12:29:13;;;;;;;9.70;6.50;;;13.50;99.90;;;;;;20906030;28;20037;-50
2023/03/09 12:39:24;;;;;;;12.52;8.15;;;13.60;99.90;;;;;;20905213;28;20479;-49
2023/03/09 12:49:28;;;;;;;16.52;9.07;;;14.00;99.90;;;;;;20904363;28;20040;-52
2023/03/09 12:59:30;;;;;;;16.20;10.60;;;13.80;99.90;;;;;;20903929;28;20036;-50
2023/03/09 13:09:41;;;;;;;21.05;11.50;;;14.10;99.90;;;;;;20903094;28;20124;-54
2023/03/09 13:19:55;;;;;;;17.67;11.23;;;13.80;99.90;;;;;;20903396;28;20059;-53
2023/03/09 13:30:20;;;;;;;19.13;12.63;;;13.60;99.90;;;;;;20902684;28;20437;-47
2023/03/09 13:40:24;;;;;;;17.63;12.43;;;13.40;99.90;;;;;;20901913;28;20037;-53
2023/03/09 13:50:30;;;;;;;19.50;13.85;;;13.20;99.90;;;;;;20901861;28;20039;-51
2023/03/09 14:00:32;;;;;;;22.23;13.60;;;13.20;99.90;;;;;;20902754;28;20559;-49
2023/03/09 14:10:36;;;;;;;17.90;11.85;;;12.60;99.90;;;;;;20916796;28;20440;-56
2023/03/09 14:20:40;;;;;;;20.70;13.07;;;11.80;99.90;;;;;;20916764;28;20040;-49
2023/03/09 14:30:42;;;;;;;19.52;12.57;;;11.90;99.90;;;;;;20915494;28;20041;-50
2023/03/09 14:40:44;;;;;;;20.45;13.82;;;12.20;99.90;;;;;;20914661;28;20029;-56
2023/03/09 14:50:46;;;;;;;24.60;15.07;;;12.00;99.90;;;;;;20913820;28;20033;-49
2023/03/09 15:00:47;;;;;;;25.33;16.13;;;11.70;99.90;;;;;;20913575;28;20470;-48
2023/03/09 15:10:49;;;;;;;24.23;15.02;;;11.40;99.90;;;;;;20912375;28;20095;-50
2023/03/09 15:20:51;;;;;;;20.30;13.00;;;11.20;99.90;;;;;;20911184;28;20037;-48
2023/03/09 15:30:53;;;;;;;16.60;11.13;;;10.90;99.90;;;;;;20910057;28;20553;-50
2023/03/09 15:40:55;;;;;;;24.83;13.65;;;10.70;99.90;;;;;;20910212;28;20087;-51
2023/03/09 15:50:56;;;;;;;19.73;12.43;;;10.40;99.90;;;;;;20909398;28;20413;-47
2023/03/09 16:01:04;;;;;;;18.60;12.05;;;10.30;99.90;;;;;;20909346;28;20036;-57
2023/03/09 16:11:06;;;;;;;21.77;12.70;;;10.10;99.90;;;;;;20907857;28;20049;-58
2023/03/09 16:21:08;;;;;;;20.95;12.85;;;9.80;99.90;;;;;;20907176;28;20029;-51
2023/03/09 16:31:22;;;;;;;19.92;13.95;;;9.30;99.90;;;;;;20905621;28;20025;-58
2023/03/09 16:41:24;;;;;;;25.50;14.45;;;8.70;99.90;;;;;;20905970;28;20029;-49
2023/03/09 16:51:25;;;;;;;24.88;14.38;;;8.30;99.90;;;;;;20903836;28;20048;-58
2023/03/09 17:01:27;;;;;;;23.67;14.48;;;7.80;99.90;;;;;;20904688;28;20047;-58
2023/03/09 17:11:28;;;;;;;24.83;15.25;;;7.00;99.90;;;;;;20903363;28;20041;-58
2023/03/09 17:21:30;;;;;;;27.67;15.43;;;6.30;99.90;;;;;;20902739;28;20037;-59
2023/03/09 17:31:32;;;;;;;25.30;14.98;;;5.70;99.90;;;;;;20892064;28;20542;-59
2023/03/09 17:41:33;;;;;;;27.33;16.65;;;5.30;99.90;;;;;;20899207;28;20098;-46
2023/03/09 17:51:35;;;;;;;32.22;16.15;;;5.00;99.90;;;;;;20916996;28;20075;-58
2023/03/09 18:01:38;;;;;;;31.67;17.27;;;4.90;99.90;;;;;;20916904;28;20359;-47
2023/03/09 18:11:40;;;;;;;30.08;16.35;;;4.80;99.90;;;;;;20916314;28;20122;-45
2023/03/09 18:21:41;;;;;;;33.78;18.58;;;4.60;99.90;;;;;;20912096;28;20091;-58
2023/03/09 18:31:43;;;;;;;30.95;17.70;;;4.80;99.90;;;;;;20913437;28;20037;-51
2023/03/09 18:41:45;;;;;;;32.55;17.23;;;4.90;99.90;;;;;;20914380;28;20040;-58
2023/03/09 18:51:46;;;;;;;34.50;18.92;;;5.00;99.90;;;;;;20912337;28;20032;-47
2023/03/09 19:01:48;;;;;;;28.63;15.48;;;5.00;99.90;;;;;;20913358;28;20100;-47
2023/03/09 19:11:49;;;;;;;20.90;13.40;;;4.90;99.90;;;;;;20911597;28;20049;-58
2023/03/09 19:21:51;;;;;;;26.88;13.13;;;4.90;99.90;;;;;;20910914;28;20032;-58
2023/03/09 19:31:52;;;;;;;18.20;11.65;;;4.90;99.90;;;;;;20909889;28;20029;-58
2023/03/09 19:41:54;;;;;;;9.55;5.80;;;4.90;99.90;;;;;;20908963;28;20481;-58
2023/03/09 19:51:56;;;;;;;7.72;3.60;;;5.10;99.90;;;;;;20908509;28;20029;-58
2023/03/09 20:01:57;;;;;;;9.77;5.10;;;5.30;99.90;;;;;;20906809;28;20055;-58
2023/03/09 20:11:59;;;;;;;12.68;5.78;;;5.60;99.90;;;;;;20906954;28;20041;-47
2023/03/09 20:22:04;;;;;;;12.30;5.78;;;5.50;99.90;;;;;;20906229;28;20029;-57
2023/03/09 20:32:07;;;;;;;14.13;7.32;;;4.80;99.90;;;;;;20907314;28;20482;-58
2023/03/09 20:42:09;;;;;;;16.45;8.23;;;4.60;99.90;;;;;;20905333;28;20036;-58
2023/03/09 20:52:11;;;;;;;19.13;10.40;;;4.30;99.90;;;;;;20905407;28;20102;-57
2023/03/09 21:02:13;;;;;;;25.85;12.13;;;4.00;99.90;;;;;;20858147;28;20062;-58
2023/03/09 21:12:14;;;;;;;23.88;13.43;;;3.80;99.90;;;;;;20873462;28;20103;-46
2023/03/09 21:22:16;;;;;;;27.85;13.40;;;3.80;99.90;;;;;;20902108;28;20048;-49
2023/03/09 21:32:17;;;;;;;24.73;12.77;;;3.60;99.90;;;;;;20897948;28;20416;-57
2023/03/09 21:42:20;;;;;;;24.60;13.60;;;3.40;99.90;;;;;;20901701;28;20025;-47
2023/03/09 21:52:21;;;;;;;26.23;13.05;;;3.30;99.90;;;;;;20900072;28;20041;-57
2023/03/09 22:02:23;;;;;;;24.63;12.90;;;3.20;99.90;;;;;;20901387;28;20107;-47
2023/03/09 22:12:24;;;;;;;27.13;12.38;;;3.20;99.90;;;;;;20900869;28;20036;-48
2023/03/09 22:22:26;;;;;;;25.17;11.52;;;3.20;99.90;;;;;;20903548;28;20029;-47
2023/03/09 22:32:28;;;;;;;26.38;12.20;;;3.10;99.90;;;;;;20916029;28;20033;-57
2023/03/09 22:42:34;;;;;;;23.35;11.85;;;3.10;99.90;;;;;;20915715;28;20037;-57
2023/03/09 22:52:38;;;;;;;28.08;14.68;;;3.20;99.90;;;;;;20914345;28;20036;-47
2023/03/09 23:02:39;;;;;;;34.88;16.27;;;3.50;99.90;;;;;;20913663;28;20037;-57
2023/03/09 23:12:41;;;;;;;39.05;15.93;;;3.90;99.90;;;;;;20912980;28;20792;-51
2023/03/09 23:22:43;;;;;;;26.05;14.30;;;4.30;99.90;;;;;;20911827;28;20021;-49
2023/03/09 23:32:44;;;;;;;22.20;13.77;;;4.50;99.90;;;;;;20910889;28;20033;-50
2023/03/09 23:42:46;;;;;;;30.95;14.75;;;4.90;99.90;;;;;;20910886;28;20466;-57
2023/03/09 23:52:48;;;;;;;23.95;13.27;;;5.10;99.90;;;;;;20909610;28;20032;-57
